CDT,Max TemperatureF,Mean TemperatureF,Min TemperatureF,Max Dew PointF,MeanDew PointF,Min DewpointF,Max Humidity, Mean Humidity, Min Humidity, Max Sea Level PressureIn, Mean Sea Level PressureIn, Min Sea Level PressureIn, Max VisibilityMiles, Mean VisibilityMiles, Min VisibilityMiles, Max Wind SpeedMPH, Mean Wind SpeedMPH, Max Gust SpeedMPH,PrecipitationIn, CloudCover, Events, WindDirDegrees
2013-6-1,57,52,48,57,52,46,100,99,93,30.07,29.81,29.53,10,9,2,26,15,34,0.21,8,Rain,339
2013-6-2,64,54,44,50,42,34,100,69,34,30.13,30.08,30.01,10,10,10,14,8,16,0.00,2,,341
2013-6-3,71,58,44,54,46,41,100,65,33,30.02,29.92,29.80,10,10,10,33,11,44,0.00,2,Rain,134
2013-6-4,71,63,55,64,53,48,100,77,43,30.04,29.94,29.75,10,10,10,33,14,54,0.00,4,Rain-Thunderstorm,227
2013-6-5,62,55,48,55,51,46,100,87,59,30.04,30.01,29.98,10,10,5,13,8,16,0.00,6,Rain,294
2013-6-6,62,54,46,55,50,46,100,88,55,30.06,30.03,29.99,10,10,10,16,8,20,0.00,5,,17
2013-6-7,68,54,41,57,47,41,100,73,46,30.06,29.98,29.86,10,9,0,14,3,,0.00,1,Fog,177
2013-6-8,59,55,51,57,54,48,100,95,72,29.86,29.78,29.72,10,9,2,23,17,30,0.10,6,Rain,139
2013-6-9,62,56,51,63,58,52,100,100,100,29.88,29.75,29.64,10,8,1,23,14,29,1.08,7,Rain,14
2013-6-10,75,60,46,64,57,46,100,86,53,29.90,29.85,29.81,10,7,0,14,6,20,0.00,2,Fog,155
2013-6-11,86,72,59,68,62,55,100,76,40,29.90,29.84,29.80,10,10,10,28,12,33,0.00,0,,80
2013-6-12,68,62,55,64,58,52,100,81,56,30.09,29.91,29.73,10,10,4,26,17,33,0.01,5,Rain-Thunderstorm,22
2013-6-13,77,64,50,55,51,48,100,66,38,30.16,30.09,30.01,10,10,10,14,9,20,0.00,1,,77
2013-6-14,82,72,62,72,62,55,94,73,58,30.05,29.89,29.79,10,10,1,26,13,34,0.00,3,Rain-Thunderstorm,164
2013-6-15,77,68,60,68,57,46,100,72,34,30.01,29.94,29.85,10,10,9,16,7,,0.04,0,Rain-Thunderstorm,351
2013-6-16,80,66,53,57,51,45,100,56,28,30.01,29.99,29.94,10,10,10,17,7,32,0.00,0,Rain,262
2013-6-17,77,67,57,59,54,48,100,62,41,30.06,30.02,29.98,10,10,10,20,11,28,0.00,0,,318
2013-6-18,78,66,55,61,54,46,100,65,34,30.09,30.04,29.98,10,10,10,10,5,,0.00,1,,15
2013-6-19,84,73,62,72,60,54,100,64,42,30.01,29.95,29.87,10,10,3,23,10,29,0.04,2,Rain-Thunderstorm,159
2013-6-20,82,74,66,73,69,64,100,82,66,29.92,29.86,29.80,10,10,10,21,14,28,0.00,3,Thunderstorm,164
2013-6-21,86,74,62,77,69,63,100,93,62,29.91,29.84,29.76,10,10,5,29,15,38,0.03,4,Rain-Thunderstorm,93
2013-6-22,75,70,64,72,67,64,100,95,78,29.95,29.87,29.72,10,10,5,22,12,33,0.20,5,Rain-Thunderstorm,110
2013-6-23,75,67,59,68,63,57,100,86,53,29.93,29.83,29.65,10,10,2,32,14,50,0.64,2,Rain-Thunderstorm,272
2013-6-24,77,67,57,73,66,57,100,95,69,29.94,29.84,29.77,10,10,5,16,7,22,0.03,1,Rain-Thunderstorm,142
2013-6-25,84,74,64,77,69,63,100,85,51,29.78,29.73,29.70,10,10,3,20,10,29,0.00,1,,159
2013-6-26,84,75,66,73,65,57,100,74,40,29.90,29.82,29.70,10,10,10,18,9,25,0.00,1,Thunderstorm,297
2013-6-27,82,75,68,70,61,55,100,66,39,30.01,29.96,29.90,10,10,10,21,9,28,0.00,1,Rain,306
2013-6-28,80,70,60,61,56,50,94,63,36,30.02,29.99,29.95,10,10,10,31,13,40,0.00,0,,325
2013-6-29,75,66,57,63,57,50,100,71,41,30.05,29.99,29.94,10,10,10,26,13,37,0.00,1,,356
2013-6-30,75,65,55,59,52,46,100,68,38,30.20,30.14,30.05,10,10,10,13,6,17,0.00,0,,43